Latest Conditions
At L.F.Wade Int. Airport
Recorded at 10:01 pm
Showers
Temp.: 
21°C/70°F
Humidity: 
61%
Wind: 
NW 20KT
or 23mph
Island Observations
Observations
Saturday, November 22, 2014

Observations are in local time and taken at least once an hour, or upon the start and end of specified events such as showers and thunderstorms.

Time Sky / Weather Wind Speed/Gusts Temp. R.H. Pressure
     knots (mph)  °C (°F)  %  mb / "Hg
 22:01 Mostly Cloudy Showers NW 20/0 (23/0) 21(70) 61 1023 / 30.20
 21:55 Mostly Cloudy Showers WNW 19/0 (22/0) 21(70) 61 1023 / 30.20
 20:55 Partly Cloudy  WNW 20/0 (23/0) 21(70) 48 1023 / 30.20
 19:55 Mostly Cloudy  NW 18/0 (21/0) 21(69) 59 1022 / 30.19
 18:55 Mostly Cloudy  WNW 21/0 (24/0) 21(70) 56 1022 / 30.17
 17:55 Mostly Cloudy  NW 18/0 (21/0) 21(70) 64 1021 / 30.15
 17:13 Mostly Cloudy Showers NW 16/0 (18/0) 22(71) 54 1021 / 30.14
 17:01 Mostly Cloudy Showers W 16/0 (18/0) 22(71) 54 1021 / 30.14
 16:55 Mostly Cloudy  WNW 16/0 (18/0) 22(71) 54 1021 / 30.14
 15:55 Mostly Cloudy  W 17/0 (20/0) 22(72) 54 1021 / 30.14
 14:55 Partly Cloudy  WNW 18/0 (21/0) 23(73) 55 1020 / 30.13
 13:55 Mostly Cloudy  WNW 17/0 (20/0) 23(74) 61 1020 / 30.12
 12:55 Mostly Cloudy  WNW 17/0 (20/0) 22(72) 64 1020 / 30.13
 11:55 Mostly Cloudy  WNW 14/0 (16/0) 23(74) 61 1021 / 30.14
 10:55 Mostly Cloudy  W 14/0 (16/0) 23(73) 56 1021 / 30.16
 09:55 Mostly Cloudy  WNW 15/0 (17/0) 22(72) 58 1022 / 30.17
 08:55 Mostly Cloudy  WNW 13/0 (15/0) 21(70) 59 1021 / 30.15
 07:55 Mostly Cloudy  W 10/0 (12/0) 21(70) 67 1020 / 30.12
 06:55 Mostly Cloudy  WNW 13/0 (15/0) 21(69) 62 1019 / 30.10
 05:55 Mostly Cloudy  WNW 13/0 (15/0) 20(69) 72 1019 / 30.08
 04:55 Mostly Cloudy  NW 10/0 (12/0) 20(69) 76 1018 / 30.07
 03:55 Partly Cloudy  WNW 8/0 (9/0) 20(69) 80 1019 / 30.08
 02:55 Mostly Cloudy  WNW 6/0 (7/0) 20(68) 86 1019 / 30.09
 02:40 Mostly Cloudy  WNW 8/0 (9/0) 20(68) 88 1019 / 30.10
Observations from our AWOS sites are available here (password and username are both 'guest').